Time,TemperatureF,DewpointF,PressureIn,WindDirection,WindDirectionDegrees,WindSpeedMPH,WindSpeedGustMPH,Humidity,HourlyPrecipIn,Conditions,Clouds,dailyrainin,SolarRadiationWatts/m^2,SoftwareType,DateUTC
2013-05-28 00:03:00,52.0,45.0,-100.00,North,0,8.0,15.0,78,0.00,,,0.00,0.000000,,2013-05-28 04:03:00,
2013-05-28 00:33:00,52.0,45.0,-100.00,North,0,8.0,14.0,76,0.00,,,0.00,0.000000,,2013-05-28 04:33:00,
2013-05-28 00:43:00,52.0,45.0,-100.00,North,0,8.0,14.0,76,0.00,,,0.00,0.000000,,2013-05-28 04:43:00,
2013-05-28 00:53:00,52.0,45.0,-100.00,North,0,8.0,14.0,76,0.00,,,0.00,0.000000,,2013-05-28 04:53:00,
2013-05-28 01:02:00,52.0,45.0,-100.00,North,0,8.0,14.0,76,0.00,,,0.00,0.000000,,2013-05-28 05:02:00,
2013-05-28 01:33:00,52.0,46.0,-100.00,North,0,7.0,15.0,81,0.00,,,0.00,0.000000,,2013-05-28 05:33:00,
2013-05-28 01:42:00,52.0,46.0,-100.00,North,0,7.0,15.0,81,0.00,,,0.00,0.000000,,2013-05-28 05:42:00,
2013-05-28 01:52:00,52.0,46.0,-100.00,North,0,7.0,15.0,81,0.00,,,0.00,0.000000,,2013-05-28 05:52:00,
2013-05-28 02:02:00,52.0,46.0,-100.00,North,0,7.0,15.0,81,0.00,,,0.00,0.000000,,2013-05-28 06:02:00,
2013-05-28 02:32:00,52.0,46.0,-100.00,North,0,9.0,17.0,79,0.00,,,0.00,0.000000,,2013-05-28 06:32:00,
2013-05-28 02:42:00,52.0,46.0,-100.00,North,0,9.0,17.0,79,0.00,,,0.00,0.000000,,2013-05-28 06:42:00,
2013-05-28 02:52:00,52.0,46.0,-100.00,North,0,9.0,17.0,79,0.00,,,0.00,0.000000,,2013-05-28 06:52:00,
2013-05-28 03:02:00,52.0,46.0,-100.00,North,0,9.0,17.0,79,0.00,,,0.00,0.000000,,2013-05-28 07:02:00,
2013-05-28 03:32:00,50.0,48.0,-100.00,North,0,10.0,18.0,92,0.01,,,0.01,0.000000,,2013-05-28 07:32:00,
2013-05-28 03:42:00,50.0,48.0,-100.00,North,0,10.0,18.0,92,0.01,,,0.01,0.000000,,2013-05-28 07:42:00,
2013-05-28 03:52:00,50.0,48.0,-100.00,North,0,10.0,18.0,92,0.01,,,0.01,0.000000,,2013-05-28 07:52:00,
2013-05-28 04:02:00,50.0,48.0,-100.00,North,0,10.0,18.0,92,0.01,,,0.01,0.000000,,2013-05-28 08:02:00,
2013-05-28 04:32:00,51.0,48.0,-100.00,North,0,8.0,17.0,90,0.00,,,0.01,0.000000,,2013-05-28 08:32:00,
2013-05-28 04:42:00,51.0,48.0,-100.00,North,0,8.0,17.0,90,0.00,,,0.01,0.000000,,2013-05-28 08:42:00,
2013-05-28 04:52:00,51.0,48.0,-100.00,North,0,8.0,17.0,90,0.00,,,0.01,0.000000,,2013-05-28 08:52:00,
2013-05-28 05:01:00,51.0,48.0,-100.00,North,0,8.0,17.0,90,0.00,,,0.01,0.000000,,2013-05-28 09:01:00,
2013-05-28 05:33:00,51.0,49.0,-100.00,North,0,6.0,12.0,92,0.01,,,0.02,0.000000,,2013-05-28 09:33:00,
2013-05-28 05:43:00,51.0,49.0,-100.00,North,0,6.0,12.0,92,0.01,,,0.02,0.000000,,2013-05-28 09:43:00,
2013-05-28 05:54:00,51.0,49.0,-100.00,North,0,6.0,12.0,92,0.01,,,0.02,0.000000,,2013-05-28 09:54:00,
2013-05-28 06:03:00,51.0,49.0,-100.00,North,0,6.0,12.0,92,0.01,,,0.02,0.000000,,2013-05-28 10:03:00,
2013-05-28 06:32:00,51.0,50.0,-100.00,North,0,7.0,13.0,96,0.00,,,0.02,1.000000,,2013-05-28 10:32:00,
2013-05-28 06:43:00,51.0,50.0,-100.00,North,0,7.0,13.0,96,0.00,,,0.02,1.000000,,2013-05-28 10:43:00,
2013-05-28 06:53:00,51.0,50.0,-100.00,North,0,7.0,13.0,96,0.00,,,0.02,1.000000,,2013-05-28 10:53:00,
2013-05-28 07:02:00,51.0,50.0,-100.00,North,0,7.0,13.0,96,0.00,,,0.02,1.000000,,2013-05-28 11:02:00,
2013-05-28 07:32:00,54.0,54.0,-100.00,North,0,6.0,12.0,99,0.12,,,0.14,6.000000,,2013-05-28 11:32:00,
2013-05-28 07:42:00,54.0,54.0,-100.00,North,0,6.0,12.0,99,0.12,,,0.14,6.000000,,2013-05-28 11:42:00,
2013-05-28 07:52:00,54.0,54.0,-100.00,North,0,6.0,12.0,99,0.12,,,0.14,6.000000,,2013-05-28 11:52:00,
2013-05-28 08:02:00,54.0,54.0,-100.00,North,0,6.0,12.0,99,0.12,,,0.14,6.000000,,2013-05-28 12:02:00,
2013-05-28 08:32:00,55.0,55.0,-100.00,North,0,7.0,14.0,100,0.05,,,0.19,16.000000,,2013-05-28 12:32:00,
2013-05-28 08:42:00,55.0,55.0,-100.00,North,0,7.0,14.0,100,0.05,,,0.19,16.000000,,2013-05-28 12:42:00,
2013-05-28 08:52:00,55.0,55.0,-100.00,North,0,7.0,14.0,100,0.05,,,0.19,16.000000,,2013-05-28 12:52:00,
2013-05-28 09:01:00,55.0,55.0,-100.00,North,0,7.0,14.0,100,0.05,,,0.19,16.000000,,2013-05-28 13:01:00,
2013-05-28 09:32:00,58.0,58.0,-100.00,North,0,6.0,16.0,100,0.00,,,0.19,69.000000,,2013-05-28 13:32:00,
2013-05-28 09:42:00,58.0,58.0,-100.00,North,0,6.0,16.0,100,0.00,,,0.19,69.000000,,2013-05-28 13:42:00,
2013-05-28 09:52:00,58.0,58.0,-100.00,North,0,6.0,16.0,100,0.00,,,0.19,69.000000,,2013-05-28 13:52:00,
2013-05-28 10:02:00,58.0,58.0,-100.00,North,0,6.0,16.0,100,0.00,,,0.19,69.000000,,2013-05-28 14:02:00,
2013-05-28 10:32:00,61.0,60.0,-100.00,North,0,8.0,18.0,96,0.01,,,0.20,84.000000,,2013-05-28 14:32:00,
2013-05-28 10:42:00,61.0,60.0,-100.00,North,0,8.0,18.0,96,0.01,,,0.20,84.000000,,2013-05-28 14:42:00,
2013-05-28 10:52:00,61.0,60.0,-100.00,North,0,8.0,18.0,96,0.01,,,0.20,84.000000,,2013-05-28 14:52:00,
2013-05-28 11:01:00,61.0,60.0,-100.00,North,0,8.0,18.0,96,0.01,,,0.20,84.000000,,2013-05-28 15:01:00,
2013-05-28 11:33:00,61.0,60.0,-100.00,North,0,8.0,17.0,96,0.03,,,0.23,144.000000,,2013-05-28 15:33:00,
2013-05-28 11:43:00,61.0,60.0,-100.00,North,0,8.0,17.0,96,0.03,,,0.23,144.000000,,2013-05-28 15:43:00,
2013-05-28 11:53:00,61.0,60.0,-100.00,North,0,8.0,17.0,96,0.03,,,0.23,144.000000,,2013-05-28 15:53:00,
2013-05-28 12:03:00,61.0,60.0,-100.00,North,0,8.0,17.0,96,0.03,,,0.23,144.000000,,2013-05-28 16:03:00,
2013-05-28 12:33:00,61.0,61.0,-100.00,North,0,6.0,20.0,100,0.18,,,0.41,95.000000,,2013-05-28 16:33:00,
2013-05-28 12:42:00,61.0,61.0,-100.00,North,0,6.0,20.0,100,0.18,,,0.41,95.000000,,2013-05-28 16:42:00,
2013-05-28 12:53:00,61.0,61.0,-100.00,North,0,6.0,20.0,100,0.18,,,0.41,95.000000,,2013-05-28 16:53:00,
2013-05-28 13:02:00,61.0,61.0,-100.00,North,0,6.0,20.0,100,0.18,,,0.41,95.000000,,2013-05-28 17:02:00,
2013-05-28 13:32:00,62.0,62.0,-100.00,North,0,5.0,16.0,100,0.03,,,0.44,108.000000,,2013-05-28 17:32:00,
2013-05-28 13:42:00,62.0,62.0,-100.00,North,0,5.0,16.0,100,0.03,,,0.44,108.000000,,2013-05-28 17:42:00,
2013-05-28 13:52:00,62.0,62.0,-100.00,North,0,5.0,16.0,100,0.03,,,0.44,108.000000,,2013-05-28 17:52:00,
2013-05-28 14:01:00,62.0,62.0,-100.00,North,0,5.0,16.0,100,0.03,,,0.44,108.000000,,2013-05-28 18:01:00,
2013-05-28 14:32:00,68.0,65.0,-100.00,North,0,4.0,11.0,89,0.00,,,0.44,355.000000,,2013-05-28 18:32:00,
2013-05-28 14:42:00,68.0,65.0,-100.00,North,0,4.0,11.0,89,0.00,,,0.44,355.000000,,2013-05-28 18:42:00,
2013-05-28 14:52:00,68.0,65.0,-100.00,North,0,4.0,11.0,89,0.00,,,0.44,355.000000,,2013-05-28 18:52:00,
2013-05-28 15:01:00,68.0,65.0,-100.00,North,0,4.0,11.0,89,0.00,,,0.44,355.000000,,2013-05-28 19:01:00,
2013-05-28 15:32:00,69.0,64.0,-100.00,North,0,5.0,9.0,84,0.00,,,0.44,320.000000,,2013-05-28 19:32:00,
2013-05-28 15:42:00,69.0,64.0,-100.00,North,0,5.0,9.0,84,0.00,,,0.44,320.000000,,2013-05-28 19:42:00,
2013-05-28 15:52:00,69.0,64.0,-100.00,North,0,5.0,9.0,84,0.00,,,0.44,320.000000,,2013-05-28 19:52:00,
2013-05-28 16:02:00,69.0,64.0,-100.00,North,0,5.0,9.0,84,0.00,,,0.44,320.000000,,2013-05-28 20:02:00,
2013-05-28 16:32:00,64.0,64.0,-100.00,North,0,5.0,17.0,100,0.15,,,0.59,107.000000,,2013-05-28 20:32:00,
2013-05-28 16:42:00,64.0,64.0,-100.00,North,0,5.0,17.0,100,0.15,,,0.59,107.000000,,2013-05-28 20:42:00,
2013-05-28 16:52:00,64.0,64.0,-100.00,North,0,5.0,17.0,100,0.15,,,0.59,107.000000,,2013-05-28 20:52:00,
2013-05-28 17:02:00,64.0,64.0,-100.00,North,0,5.0,17.0,100,0.15,,,0.59,107.000000,,2013-05-28 21:02:00,
2013-05-28 17:33:00,71.0,63.0,-100.00,North,0,7.0,16.0,77,0.00,,,0.59,469.000000,,2013-05-28 21:33:00,
2013-05-28 17:43:00,71.0,63.0,-100.00,North,0,7.0,16.0,77,0.00,,,0.59,469.000000,,2013-05-28 21:43:00,
2013-05-28 17:53:00,71.0,63.0,-100.00,North,0,7.0,16.0,77,0.00,,,0.59,469.000000,,2013-05-28 21:53:00,
2013-05-28 18:02:00,71.0,63.0,-100.00,North,0,7.0,16.0,77,0.00,,,0.59,469.000000,,2013-05-28 22:02:00,
2013-05-28 18:33:00,71.0,60.0,-100.00,North,0,7.0,15.0,69,0.00,,,0.59,422.000000,,2013-05-28 22:33:00,
2013-05-28 18:42:00,71.0,60.0,-100.00,North,0,7.0,15.0,69,0.00,,,0.59,422.000000,,2013-05-28 22:42:00,
2013-05-28 18:52:00,71.0,60.0,-100.00,North,0,7.0,15.0,69,0.00,,,0.59,422.000000,,2013-05-28 22:52:00,
2013-05-28 19:02:00,71.0,60.0,-100.00,North,0,7.0,15.0,69,0.00,,,0.59,422.000000,,2013-05-28 23:02:00,
2013-05-28 19:32:00,71.0,59.0,-100.00,North,0,7.0,15.0,65,0.00,,,0.59,329.000000,,2013-05-28 23:32:00,
2013-05-28 19:42:00,71.0,59.0,-100.00,North,0,7.0,15.0,65,0.00,,,0.59,329.000000,,2013-05-28 23:42:00,
2013-05-28 19:52:00,71.0,59.0,-100.00,North,0,7.0,15.0,65,0.00,,,0.59,329.000000,,2013-05-28 23:52:00,
2013-05-28 20:02:00,71.0,59.0,-100.00,North,0,7.0,15.0,65,0.00,,,0.59,329.000000,,2013-05-29 00:02:00,
2013-05-28 20:32:00,67.0,56.0,-100.00,North,0,5.0,14.0,68,0.00,,,0.59,81.000000,,2013-05-29 00:32:00,
2013-05-28 20:42:00,67.0,56.0,-100.00,North,0,5.0,14.0,68,0.00,,,0.59,81.000000,,2013-05-29 00:42:00,
2013-05-28 20:52:00,67.0,56.0,-100.00,North,0,5.0,14.0,68,0.00,,,0.59,81.000000,,2013-05-29 00:52:00,
2013-05-28 21:01:00,67.0,56.0,-100.00,North,0,5.0,14.0,68,0.00,,,0.59,81.000000,,2013-05-29 01:01:00,
2013-05-28 21:32:00,66.0,57.0,-100.00,North,0,6.0,11.0,72,0.00,,,0.59,11.000000,,2013-05-29 01:32:00,
2013-05-28 21:42:00,66.0,57.0,-100.00,North,0,6.0,11.0,72,0.00,,,0.59,11.000000,,2013-05-29 01:42:00,
2013-05-28 21:52:00,66.0,57.0,-100.00,North,0,6.0,11.0,72,0.00,,,0.59,11.000000,,2013-05-29 01:52:00,
2013-05-28 22:02:00,66.0,57.0,-100.00,North,0,6.0,11.0,72,0.00,,,0.59,11.000000,,2013-05-29 02:02:00,
2013-05-28 22:32:00,66.0,56.0,-100.00,North,0,7.0,14.0,70,0.00,,,0.59,0.000000,,2013-05-29 02:32:00,
2013-05-28 22:42:00,66.0,56.0,-100.00,North,0,7.0,14.0,70,0.00,,,0.59,0.000000,,2013-05-29 02:42:00,
2013-05-28 22:52:00,66.0,56.0,-100.00,North,0,7.0,14.0,70,0.00,,,0.59,0.000000,,2013-05-29 02:52:00,
2013-05-28 23:02:00,66.0,56.0,-100.00,North,0,7.0,14.0,70,0.00,,,0.59,0.000000,,2013-05-29 03:02:00,
2013-05-28 23:33:00,67.0,54.0,-100.00,North,0,7.0,15.0,64,0.00,,,0.59,0.000000,,2013-05-29 03:33:00,
2013-05-28 23:43:00,67.0,54.0,-100.00,North,0,7.0,15.0,64,0.00,,,0.59,0.000000,,2013-05-29 03:43:00,
2013-05-28 23:53:00,67.0,54.0,-100.00,North,0,7.0,15.0,64,0.00,,,0.59,0.000000,,2013-05-29 03:53:00,